Wetterdaten der Wetterstation 41540 Dormagen

Letzte Wetterlage 29.05.2015 20:10
Wetterdiagramm
Tabellarische Darstellung
Datum Temperatur Windchill Feuchte Luftdruck Windrichtung Windstärke Niederschlag
29.05.2015 20:15 16,0 °C 11,7 °C 54 % 1008,8 hPa 270 4.8 0 l/m²
29.05.2015 20:10 16,1 °C 14,9 °C 54 % 1008,8 hPa 180 2.4 0 l/m²
29.05.2015 20:05 16,3 °C 13,3 °C 53 % 1008,8 hPa 315 3.7 0 l/m²
29.05.2015 20:00 16,3 °C 13,3 °C 53 % 1008,7 hPa 315 3.7 0 l/m²
29.05.2015 19:55 16,4 °C 14,8 °C 53 % 1008,8 hPa 225 2.7 0 l/m²
29.05.2015 19:50 16,5 °C 14,9 °C 53 % 1008,7 hPa 225 2.7 0 l/m²
29.05.2015 19:45 16,5 °C 12,8 °C 52 % 1008,7 hPa 225 4.4 0 l/m²
29.05.2015 19:40 16,7 °C 15,6 °C 52 % 1008,7 hPa 315 2.4 0 l/m²
29.05.2015 19:35 16,8 °C 16,8 °C 52 % 1008,6 hPa 315 1.7 0 l/m²
29.05.2015 19:30 16,9 °C 15,8 °C 51 % 1008,8 hPa 225 2.4 0 l/m²
29.05.2015 19:25 17,0 °C 17,0 °C 49 % 1008,5 hPa 180 1.0 0 l/m²
29.05.2015 19:20 17,1 °C 16,0 °C 49 % 1008,7 hPa 315 2.4 0 l/m²
29.05.2015 19:15 17,1 °C 17,1 °C 49 % 1008,8 hPa 270 1.7 0 l/m²
29.05.2015 19:10 17,2 °C 17,2 °C 47 % 1008,7 hPa 135 2.0 0 l/m²
29.05.2015 19:05 17,5 °C 13,6 °C 47 % 1008,8 hPa 315 4.8 0 l/m²
29.05.2015 19:00 17,5 °C 15,4 °C 47 % 1008,6 hPa 270 3.1 0 l/m²
29.05.2015 18:55 17,4 °C 14,6 °C 46 % 1008,6 hPa 315 3.7 0 l/m²
29.05.2015 18:50 17,4 °C 12,4 °C 46 % 1008,6 hPa 270 6.1 0 l/m²
29.05.2015 18:45 17,5 °C 14,7 °C 45 % 1008,7 hPa 270 3.7 0 l/m²
29.05.2015 18:40 17,8 °C 13,0 °C 44 % 1008,8 hPa 315 6.1 0 l/m²
29.05.2015 18:35 17,9 °C 14,1 °C 44 % 1008,7 hPa 270 4.8 0 l/m²
29.05.2015 18:30 18,0 °C 13,0 °C 45 % 1008,7 hPa 315 6.5 0 l/m²
29.05.2015 18:25 18,1 °C 16,1 °C 45 % 1008,9 hPa 315 3.1 0 l/m²
29.05.2015 18:20 18,0 °C 15,3 °C 45 % 1008,6 hPa 270 3.7 0 l/m²
29.05.2015 18:15 18,1 °C 16,1 °C 43 % 1008,7 hPa 315 3.1 0 l/m²
Neue Wetterwarnung

Neue Niederschlagsmeldung
Neue Meldung
Regen Liveticker
    sehr starker Regen/Gewitter
    starker Regen/Gewitter
    mäßiger bis starker Regen
    mäßiger Regen
    leichter bis mäßiger Regen
    kein Regen